createdAt,value
2022-08-18T00:00:02.407Z,100644.97
2022-08-18T00:05:06.372Z,100647.53
2022-08-18T00:10:15.578Z,100662.44
2022-08-18T00:15:21.727Z,100666.25
2022-08-18T00:20:25.713Z,100673.09
2022-08-18T00:25:27.758Z,100677.91
2022-08-18T00:30:29.656Z,100688.16
2022-08-18T00:35:38.707Z,100678.91
2022-08-18T00:40:44.514Z,100679.63
2022-08-18T00:45:47.304Z,100675.34
2022-08-18T00:51:02.510Z,100678.50
2022-08-18T00:56:09.016Z,100683.31
2022-08-18T01:01:16.144Z,100665.13
2022-08-18T01:06:32.577Z,100665.28
2022-08-18T01:11:37.646Z,100675.06
2022-08-18T01:16:58.155Z,100684.44
2022-08-18T01:22:07.901Z,100686.16
2022-08-18T01:27:11.046Z,100689.69
2022-08-18T01:32:20.179Z,100687.56
2022-08-18T01:37:24.603Z,100690.00
2022-08-18T01:42:26.597Z,100694.97
2022-08-18T01:47:29.002Z,100707.03
2022-08-18T01:52:35.623Z,100701.06
2022-08-18T01:57:45.484Z,100697.81
2022-08-18T02:03:01.694Z,100694.41
2022-08-18T02:08:05.636Z,100691.53
2022-08-18T02:13:09.405Z,100705.22
2022-08-18T02:18:32.551Z,100692.84
2022-08-18T02:23:52.826Z,100693.41
2022-08-18T02:28:55.989Z,100692.00
2022-08-18T02:33:58.234Z,100701.09
2022-08-18T02:39:00.354Z,100700.22
2022-08-18T02:44:03.109Z,100695.84
2022-08-18T02:49:07.771Z,100710.03
2022-08-18T02:54:11.652Z,100704.91
2022-08-18T02:59:16.538Z,100691.28
2022-08-18T03:04:30.368Z,100684.16
2022-08-18T03:09:34.769Z,100673.38
2022-08-18T03:14:38.468Z,100682.75
2022-08-18T03:19:40.390Z,100679.78
2022-08-18T03:24:45.549Z,100670.41
2022-08-18T03:29:47.330Z,100660.59
2022-08-18T03:34:49.313Z,100660.59
2022-08-18T03:39:53.187Z,100652.47
2022-08-18T03:44:55.522Z,100652.66
2022-08-18T03:49:57.364Z,100647.78
2022-08-18T03:55:00.464Z,100658.75
2022-08-18T04:00:05.465Z,100652.91
2022-08-18T04:05:07.861Z,100667.13
2022-08-18T04:10:14.060Z,100671.25
2022-08-18T04:15:21.450Z,100676.09
2022-08-18T04:20:24.684Z,100675.94
2022-08-18T04:25:32.841Z,100683.88
2022-08-18T04:30:36.355Z,100684.31
2022-08-18T04:35:38.463Z,100686.44
2022-08-18T04:40:41.909Z,100694.41
2022-08-18T04:45:46.398Z,100692.13
2022-08-18T04:50:48.502Z,100693.41
2022-08-18T04:55:55.090Z,100685.16
2022-08-18T05:01:00.162Z,100684.19
2022-08-18T05:06:05.485Z,100696.25
2022-08-18T05:11:08.849Z,100701.22
2022-08-18T05:16:16.816Z,100709.91
2022-08-18T05:21:24.316Z,100712.03
2022-08-18T05:26:27.969Z,100726.66
2022-08-18T05:31:30.569Z,100725.38
2022-08-18T05:36:47.670Z,100728.22
2022-08-18T05:41:59.197Z,100728.22
2022-08-18T05:47:13.118Z,100729.06
2022-08-18T05:52:29.129Z,100720.53
2022-08-18T05:57:38.362Z,100729.06
2022-08-18T06:02:51.437Z,100718.38
2022-08-18T06:08:01.253Z,100726.78
2022-08-18T06:13:03.723Z,100736.44
2022-08-18T06:18:23.735Z,100741.97
2022-08-18T06:23:31.361Z,100745.81
2022-08-18T06:29:03.811Z,100750.78
2022-08-18T06:34:25.078Z,100750.31
2022-08-18T06:39:35.196Z,100752.25
2022-08-18T06:44:43.514Z,100761.66
2022-08-18T06:50:20.921Z,100760.22
2022-08-18T06:55:39.773Z,100767.72
2022-08-18T07:00:50.551Z,100765.31
2022-08-18T07:06:11.875Z,100765.03
2022-08-18T07:11:27.963Z,100758.78
2022-08-18T07:16:57.285Z,100757.66
2022-08-18T07:22:04.699Z,100755.94
2022-08-18T07:27:17.706Z,100764.91
2022-08-18T07:32:22.171Z,100760.47
2022-08-18T07:37:33.477Z,100754.25
2022-08-18T07:43:00.543Z,100759.09
2022-08-18T07:48:37.160Z,100757.41
2022-08-18T07:53:54.778Z,100773.53
2022-08-18T07:59:30.562Z,100782.31
2022-08-18T08:04:53.680Z,100783.91
2022-08-18T08:10:23.452Z,100787.63
2022-08-18T08:15:37.043Z,100780.31
2022-08-18T08:20:54.113Z,100784.13
2022-08-18T08:26:11.649Z,100792.28
2022-08-18T08:31:48.403Z,100786.06
2022-08-18T08:36:59.023Z,100794.94
2022-08-18T08:42:33.097Z,100785.56
2022-08-18T08:47:46.654Z,100789.44
2022-08-18T08:52:59.035Z,100792.41
2022-08-18T08:58:19.441Z,100792.00
2022-08-18T09:03:30.226Z,100794.78
2022-08-18T09:08:40.665Z,100786.34
2022-08-18T09:13:56.049Z,100767.06
2022-08-18T09:19:22.195Z,100778.34
2022-08-18T09:24:39.322Z,100773.44
2022-08-18T09:29:55.226Z,100773.00
2022-08-18T09:35:09.159Z,100771.53
2022-08-18T09:40:59.381Z,100778.34
2022-08-18T09:45:59.828Z,100778.09
2022-08-18T09:51:32.137Z,100769.53
2022-08-18T09:56:54.220Z,100772.66
2022-08-18T10:01:57.435Z,100777.44
2022-08-18T10:13:01.768Z,100768.75
2022-08-18T10:18:24.312Z,100773.75
2022-08-18T10:23:49.523Z,100764.31
2022-08-18T10:29:00.142Z,100762.25
2022-08-18T10:34:23.351Z,100770.63
2022-08-18T10:39:39.564Z,100755.19
2022-08-18T10:44:46.469Z,100752.09
2022-08-18T10:49:50.720Z,100749.66
2022-08-18T10:54:59.226Z,100745.69
2022-08-18T11:00:17.713Z,100749.78
2022-08-18T11:05:24.788Z,100727.88
2022-08-18T11:10:57.863Z,100737.25
2022-08-18T11:16:18.520Z,100742.94
2022-08-18T11:21:42.565Z,100737.56
2022-08-18T11:27:09.810Z,100736.28
2022-08-18T11:32:29.376Z,100732.41
2022-08-18T11:37:49.231Z,100727.59
2022-08-18T11:43:02.858Z,100733.84
2022-08-18T11:48:36.062Z,100744.06
2022-08-18T11:59:25.689Z,100748.16
2022-08-18T12:04:52.787Z,100747.97
2022-08-18T12:10:19.265Z,100743.03
2022-08-18T12:15:36.586Z,100740.06
2022-08-18T12:20:51.359Z,100745.44
2022-08-18T12:25:53.510Z,100756.19
2022-08-18T12:30:57.117Z,100762.72
2022-08-18T12:35:59.194Z,100776.75
2022-08-18T12:41:01.820Z,100791.44
2022-08-18T12:46:05.406Z,100790.69
2022-08-18T12:51:10.112Z,100798.97
2022-08-18T12:56:40.069Z,100784.91
2022-08-18T13:01:42.432Z,100765.41
2022-08-18T13:07:01.585Z,100746.25
2022-08-18T13:12:10.031Z,100737.16
2022-08-18T13:17:33.451Z,100727.06
2022-08-18T13:22:37.462Z,100724.81
2022-08-18T13:27:43.590Z,100714.28
2022-08-18T13:32:58.793Z,100695.81
2022-08-18T13:38:04.163Z,100705.22
2022-08-18T13:43:18.149Z,100704.84
2022-08-18T13:48:24.261Z,100692.94
2022-08-18T13:53:27.582Z,100687.44
2022-08-18T13:58:30.077Z,100689.56
2022-08-18T14:03:42.716Z,100685.16
2022-08-18T14:08:49.730Z,100686.13
2022-08-18T14:13:51.857Z,100676.34
2022-08-18T14:19:12.655Z,100690.69
2022-08-18T14:24:36.809Z,100674.91
2022-08-18T14:29:45.496Z,100668.84
2022-08-18T14:34:51.128Z,100673.53
2022-08-18T14:39:54.026Z,100661.47
2022-08-18T14:45:17.146Z,100662.28
2022-08-18T14:50:25.744Z,100666.16
2022-08-18T14:55:28.127Z,100671.53
2022-08-18T15:00:31.755Z,100671.81
2022-08-18T15:05:34.420Z,100676.66
2022-08-18T15:10:36.428Z,100666.41
2022-08-18T15:15:50.737Z,100675.53
2022-08-18T15:21:19.466Z,100679.63
2022-08-18T15:26:34.679Z,100672.81
2022-08-18T15:31:57.714Z,100673.94
2022-08-18T15:37:09.770Z,100657.59
2022-08-18T15:42:13.669Z,100665.72
2022-08-18T15:47:20.803Z,100654.91
2022-08-18T15:52:26.033Z,100655.63
2022-08-18T15:57:38.446Z,100659.59
2022-08-18T16:02:44.781Z,100651.50
2022-08-18T16:07:51.569Z,100642.41
2022-08-18T16:12:53.611Z,100642.69
2022-08-18T16:17:56.195Z,100637.88
2022-08-18T16:22:58.201Z,100644.41
2022-08-18T16:28:00.631Z,100641.56
2022-08-18T16:33:04.786Z,100635.03
2022-08-18T16:38:09.107Z,100637.03
2022-08-18T16:43:13.010Z,100623.09
2022-08-18T16:48:16.954Z,100630.09
2022-08-18T16:53:19.093Z,100625.41
2022-08-18T16:58:39.716Z,100623.97
2022-08-18T17:04:00.370Z,100622.69
2022-08-18T17:09:09.769Z,100609.47
2022-08-18T17:14:12.538Z,100602.97
2022-08-18T17:19:14.718Z,100607.22
2022-08-18T17:24:18.612Z,100603.50
2022-08-18T17:30:02.766Z,100604.81
2022-08-18T17:35:11.004Z,100613.44
2022-08-18T17:40:18.667Z,100603.19
2022-08-18T17:45:22.208Z,100607.88
2022-08-18T17:50:47.509Z,100607.47
2022-08-18T17:56:12.665Z,100612.03
2022-08-18T18:01:15.550Z,100606.06
2022-08-18T18:06:18.509Z,100618.28
2022-08-18T18:11:37.715Z,100610.03
2022-08-18T18:16:39.507Z,100617.97
2022-08-18T18:21:58.960Z,100625.38
2022-08-18T18:27:24.334Z,100619.44
2022-08-18T18:32:31.109Z,100626.06
2022-08-18T18:37:33.289Z,100618.97
2022-08-18T18:42:36.831Z,100625.38
2022-08-18T18:48:04.931Z,100626.78
2022-08-18T18:53:27.409Z,100623.22
2022-08-18T18:58:46.162Z,100626.78
2022-08-18T19:04:03.509Z,100625.09
2022-08-18T19:09:24.710Z,100634.03
2022-08-18T19:14:34.733Z,100641.44
2022-08-18T19:19:44.633Z,100640.84
2022-08-18T19:25:05.094Z,100637.03
2022-08-18T19:30:12.669Z,100652.22
2022-08-18T19:35:19.849Z,100648.09
2022-08-18T19:40:30.583Z,100646.94
2022-08-18T19:45:35.843Z,100652.34
2022-08-18T19:50:43.641Z,100645.25
2022-08-18T19:56:09.225Z,100648.09
2022-08-18T20:01:48.411Z,100646.38
2022-08-18T20:07:17.101Z,100639.44
2022-08-18T20:12:27.003Z,100654.47
2022-08-18T20:17:29.757Z,100653.75
2022-08-18T20:22:44.003Z,100649.06
2022-08-18T20:28:12.973Z,100649.25
2022-08-18T20:33:24.238Z,100650.66
2022-08-18T20:38:35.908Z,100654.78
2022-08-18T20:43:41.200Z,100651.81
2022-08-18T20:49:06.036Z,100657.34
2022-08-18T20:54:31.427Z,100662.59
2022-08-18T20:59:39.231Z,100656.91
2022-08-18T21:04:52.139Z,100671.97
2022-08-18T21:10:13.440Z,100674.94
2022-08-18T21:15:15.603Z,100675.09
2022-08-18T21:20:17.383Z,100681.22
2022-08-18T21:25:19.839Z,100673.09
2022-08-18T21:30:24.717Z,100676.22
2022-08-18T21:35:34.031Z,100683.84
2022-08-18T21:40:46.721Z,100689.44
2022-08-18T21:45:56.261Z,100693.81
2022-08-18T21:51:01.301Z,100698.78
2022-08-18T21:56:03.352Z,100713.72
2022-08-18T22:01:10.851Z,100706.75
2022-08-18T22:06:23.318Z,100705.06
2022-08-18T22:12:01.267Z,100696.41
2022-08-18T22:17:24.929Z,100703.78
2022-08-18T22:22:49.432Z,100704.91
2022-08-18T22:27:51.484Z,100704.06
2022-08-18T22:32:53.939Z,100695.97
2022-08-18T22:37:56.026Z,100712.03
2022-08-18T22:42:59.031Z,100710.19
2022-08-18T22:48:01.487Z,100713.28
2022-08-18T22:53:03.718Z,100719.25
2022-08-18T22:58:05.651Z,100721.94
2022-08-18T23:03:10.684Z,100721.09
2022-08-18T23:08:12.834Z,100717.25
2022-08-18T23:13:17.075Z,100714.00
2022-08-18T23:18:21.198Z,100717.13
2022-08-18T23:23:26.640Z,100700.38
2022-08-18T23:28:28.686Z,100710.31
2022-08-18T23:33:30.950Z,100713.44
2022-08-18T23:38:32.784Z,100717.97
2022-08-18T23:43:36.194Z,100716.28
2022-08-18T23:48:38.257Z,100706.59
2022-08-18T23:53:40.181Z,100701.06
2022-08-18T23:58:43.459Z,100705.75
